Terminal Aerodrome Forecast
Issued by NWS Sterling, VA

Current Version | Previous Version | Graphics & Text | Print | Product List | Glossary On
Versions: 1 2 3 4 5 6 7 8 9 10 11 12 13 14
000
FTUS41 KLWX 130500
TAFMRB
TAF
KMRB 130533Z 1306/1406 05005KT P6SM BKN090
     FM130900 VRB03KT P6SM BKN025 OVC050
     FM131200 00000KT 5SM -SHRA OVC025
     FM131800 VRB03KT P6SM OVC025
     FM132200 32006KT P6SM BKN250=

USA.gov is the U.S. government's official web portal to all federal, state and local government web resources and services.